sensor_id;sensor_type;location;lat;lon;timestamp;pressure;altitude;pressure_sealevel;temperature;humidity
13952;BME280;39535;52.192;9.886;2023-02-20T00:00:16;101222.53;;;5.85;97.49
13952;BME280;39535;52.192;9.886;2023-02-20T00:02:43;101212.09;;;5.81;97.48
13952;BME280;39535;52.192;9.886;2023-02-20T00:05:11;101202.72;;;5.92;96.63
13952;BME280;39535;52.192;9.886;2023-02-20T00:07:38;101208.72;;;5.86;97.03
13952;BME280;39535;52.192;9.886;2023-02-20T00:10:05;101224.34;;;5.94;96.50
13952;BME280;39535;52.192;9.886;2023-02-20T00:12:32;101240.63;;;5.84;96.47
13952;BME280;39535;52.192;9.886;2023-02-20T00:15:00;101241.34;;;5.72;96.74
13952;BME280;39535;52.192;9.886;2023-02-20T00:17:26;101227.47;;;5.68;97.18
13952;BME280;39535;52.192;9.886;2023-02-20T00:19:54;101239.66;;;5.75;96.81
13952;BME280;39535;52.192;9.886;2023-02-20T00:22:20;101232.88;;;5.85;96.51
13952;BME280;39535;52.192;9.886;2023-02-20T00:24:46;101236.34;;;5.86;96.09
13952;BME280;39535;52.192;9.886;2023-02-20T00:27:13;101246.69;;;5.84;95.57
13952;BME280;39535;52.192;9.886;2023-02-20T00:29:39;101243.97;;;5.73;96.04
13952;BME280;39535;52.192;9.886;2023-02-20T00:32:07;101244.06;;;5.83;96.22
13952;BME280;39535;52.192;9.886;2023-02-20T00:34:33;101234.69;;;5.91;95.67
13952;BME280;39535;52.192;9.886;2023-02-20T00:36:59;101234.56;;;5.82;95.97
13952;BME280;39535;52.192;9.886;2023-02-20T00:39:26;101219.94;;;5.85;95.80
13952;BME280;39535;52.192;9.886;2023-02-20T00:41:52;101219.16;;;5.92;95.89
13952;BME280;39535;52.192;9.886;2023-02-20T00:44:20;101244.16;;;5.87;95.35
13952;BME280;39535;52.192;9.886;2023-02-20T00:46:46;101239.91;;;5.94;94.64
13952;BME280;39535;52.192;9.886;2023-02-20T00:49:14;101250.22;;;5.89;94.57
13952;BME280;39535;52.192;9.886;2023-02-20T00:51:40;101235.47;;;5.85;95.61
13952;BME280;39535;52.192;9.886;2023-02-20T00:54:07;101234.78;;;5.95;94.83
13952;BME280;39535;52.192;9.886;2023-02-20T00:56:33;101243.22;;;5.84;94.24
13952;BME280;39535;52.192;9.886;2023-02-20T00:58:59;101232.06;;;5.88;94.71
13952;BME280;39535;52.192;9.886;2023-02-20T01:01:26;101245.88;;;5.87;94.64
13952;BME280;39535;52.192;9.886;2023-02-20T01:03:52;101249.31;;;5.86;94.23
13952;BME280;39535;52.192;9.886;2023-02-20T01:06:20;101253.63;;;5.88;94.04
13952;BME280;39535;52.192;9.886;2023-02-20T01:08:46;101260.56;;;5.89;93.60
13952;BME280;39535;52.192;9.886;2023-02-20T01:11:13;101272.69;;;5.92;93.88
13952;BME280;39535;52.192;9.886;2023-02-20T01:13:39;101270.13;;;5.93;93.39
13952;BME280;39535;52.192;9.886;2023-02-20T01:16:06;101280.34;;;5.84;92.95
13952;BME280;39535;52.192;9.886;2023-02-20T01:18:32;101270.06;;;5.90;93.53
13952;BME280;39535;52.192;9.886;2023-02-20T01:20:59;101276.28;;;6.00;93.38
13952;BME280;39535;52.192;9.886;2023-02-20T01:23:26;101273.56;;;5.91;94.03
13952;BME280;39535;52.192;9.886;2023-02-20T01:25:53;101262.19;;;5.83;93.69
13952;BME280;39535;52.192;9.886;2023-02-20T01:28:19;101251.25;;;5.99;94.58
13952;BME280;39535;52.192;9.886;2023-02-20T01:30:45;101263.34;;;6.00;93.33
13952;BME280;39535;52.192;9.886;2023-02-20T01:33:12;101278.88;;;6.00;92.53
13952;BME280;39535;52.192;9.886;2023-02-20T01:35:38;101286.75;;;6.08;92.22
13952;BME280;39535;52.192;9.886;2023-02-20T01:38:05;101292.88;;;6.13;91.45
13952;BME280;39535;52.192;9.886;2023-02-20T01:40:33;101278.28;;;6.20;91.17
13952;BME280;39535;52.192;9.886;2023-02-20T01:42:59;101293.44;;;5.93;90.52
13952;BME280;39535;52.192;9.886;2023-02-20T01:45:30;101280.66;;;6.04;90.57
13952;BME280;39535;52.192;9.886;2023-02-20T01:47:57;101286.78;;;6.09;90.70
13952;BME280;39535;52.192;9.886;2023-02-20T01:50:28;101287.66;;;6.10;90.94
13952;BME280;39535;52.192;9.886;2023-02-20T01:52:57;101297.97;;;6.05;89.45
13952;BME280;39535;52.192;9.886;2023-02-20T01:55:26;101301.50;;;6.12;90.28
13952;BME280;39535;52.192;9.886;2023-02-20T01:57:58;101322.94;;;5.99;89.90
13952;BME280;39535;52.192;9.886;2023-02-20T02:00:26;101300.63;;;6.11;89.53
13952;BME280;39535;52.192;9.886;2023-02-20T02:02:57;101304.06;;;6.10;89.18
13952;BME280;39535;52.192;9.886;2023-02-20T02:05:27;101293.69;;;6.07;90.28
13952;BME280;39535;52.192;9.886;2023-02-20T02:07:54;101289.28;;;6.02;89.72
13952;BME280;39535;52.192;9.886;2023-02-20T02:10:24;101273.69;;;5.97;90.19
13952;BME280;39535;52.192;9.886;2023-02-20T02:12:53;101264.91;;;5.92;90.25
13952;BME280;39535;52.192;9.886;2023-02-20T02:15:23;101240.84;;;5.97;90.58
13952;BME280;39535;52.192;9.886;2023-02-20T02:17:58;101247.81;;;6.02;90.30
13952;BME280;39535;52.192;9.886;2023-02-20T02:20:53;101239.97;;;5.95;90.27
13952;BME280;39535;52.192;9.886;2023-02-20T02:23:54;101228.50;;;5.80;90.78
13952;BME280;39535;52.192;9.886;2023-02-20T02:26:52;101176.47;;;5.64;92.48
13952;BME280;39535;52.192;9.886;2023-02-20T02:29:37;101171.38;;;5.70;92.29
13952;BME280;39535;52.192;9.886;2023-02-20T02:32:32;101150.69;;;5.73;92.82
13952;BME280;39535;52.192;9.886;2023-02-20T02:38:16;101166.28;;;5.78;92.30
13952;BME280;39535;52.192;9.886;2023-02-20T02:40:51;101168.03;;;5.79;91.52
13952;BME280;39535;52.192;9.886;2023-02-20T02:43:25;101167.09;;;5.74;92.30
13952;BME280;39535;52.192;9.886;2023-02-20T02:45:55;101148.75;;;5.55;92.22
13952;BME280;39535;52.192;9.886;2023-02-20T02:48:25;101133.38;;;5.69;92.60
13952;BME280;39535;52.192;9.886;2023-02-20T02:50:55;101124.66;;;5.63;91.58
13952;BME280;39535;52.192;9.886;2023-02-20T02:53:24;101112.28;;;5.40;92.45
13952;BME280;39535;52.192;9.886;2023-02-20T02:55:51;101099.44;;;5.48;93.47
13952;BME280;39535;52.192;9.886;2023-02-20T02:58:17;101089.13;;;5.51;93.01
13952;BME280;39535;52.192;9.886;2023-02-20T03:00:47;101075.50;;;5.66;92.28
13952;BME280;39535;52.192;9.886;2023-02-20T03:03:20;101086.75;;;5.68;92.48
13952;BME280;39535;52.192;9.886;2023-02-20T03:05:50;101094.56;;;5.72;91.90
13952;BME280;39535;52.192;9.886;2023-02-20T03:08:24;101094.56;;;5.72;91.95
13952;BME280;39535;52.192;9.886;2023-02-20T03:10:59;101086.72;;;5.66;92.35
13952;BME280;39535;52.192;9.886;2023-02-20T03:13:31;101065.78;;;5.48;93.27
13952;BME280;39535;52.192;9.886;2023-02-20T03:16:20;101046.81;;;5.49;93.76
13952;BME280;39535;52.192;9.886;2023-02-20T03:18:49;101032.31;;;5.65;94.35
13952;BME280;39535;52.192;9.886;2023-02-20T03:21:19;101046.22;;;5.74;93.73
13952;BME280;39535;52.192;9.886;2023-02-20T03:23:50;101048.78;;;5.70;93.00
13952;BME280;39535;52.192;9.886;2023-02-20T03:26:22;101044.59;;;5.81;93.26
13952;BME280;39535;52.192;9.886;2023-02-20T03:28:55;101053.22;;;5.82;93.37
13952;BME280;39535;52.192;9.886;2023-02-20T03:31:27;101059.28;;;5.84;93.16
13952;BME280;39535;52.192;9.886;2023-02-20T03:33:58;101060.09;;;5.80;93.16
13952;BME280;39535;52.192;9.886;2023-02-20T03:36:48;101063.56;;;5.80;93.47
13952;BME280;39535;52.192;9.886;2023-02-20T03:39:38;101064.50;;;5.87;93.67
13952;BME280;39535;52.192;9.886;2023-02-20T03:42:28;101075.63;;;5.78;93.21
13952;BME280;39535;52.192;9.886;2023-02-20T03:45:16;101046.34;;;5.85;93.45
13952;BME280;39535;52.192;9.886;2023-02-20T03:47:46;101048.97;;;5.88;93.71
13952;BME280;39535;52.192;9.886;2023-02-20T03:50:17;101048.22;;;5.97;93.67
13952;BME280;39535;52.192;9.886;2023-02-20T03:53:02;101029.22;;;5.95;92.67
13952;BME280;39535;52.192;9.886;2023-02-20T03:55:28;101031.84;;;6.00;92.93
13952;BME280;39535;52.192;9.886;2023-02-20T03:57:59;101036.22;;;6.07;93.08
13952;BME280;39535;52.192;9.886;2023-02-20T04:00:30;101038.00;;;6.11;92.66
13952;BME280;39535;52.192;9.886;2023-02-20T04:03:01;101055.22;;;6.07;92.07
13952;BME280;39535;52.192;9.886;2023-02-20T04:05:34;101057.78;;;6.04;92.21
13952;BME280;39535;52.192;9.886;2023-02-20T04:08:05;101064.75;;;6.07;92.59
13952;BME280;39535;52.192;9.886;2023-02-20T04:10:37;101065.59;;;6.07;91.83
13952;BME280;39535;52.192;9.886;2023-02-20T04:13:06;101067.25;;;6.02;92.55
13952;BME280;39535;52.192;9.886;2023-02-20T04:15:33;101050.06;;;6.09;91.44
13952;BME280;39535;52.192;9.886;2023-02-20T04:18:02;101046.53;;;5.99;92.32
13952;BME280;39535;52.192;9.886;2023-02-20T04:20:30;101049.94;;;5.98;92.39
13952;BME280;39535;52.192;9.886;2023-02-20T04:23:00;101040.53;;;6.08;92.39
13952;BME280;39535;52.192;9.886;2023-02-20T04:25:33;101050.91;;;6.05;91.83
13952;BME280;39535;52.192;9.886;2023-02-20T04:28:01;101034.53;;;6.09;92.05
13952;BME280;39535;52.192;9.886;2023-02-20T04:30:31;101031.09;;;6.11;91.58
13952;BME280;39535;52.192;9.886;2023-02-20T04:32:57;101033.69;;;6.13;92.07
13952;BME280;39535;52.192;9.886;2023-02-20T04:35:24;101031.16;;;6.21;91.41
13952;BME280;39535;52.192;9.886;2023-02-20T04:37:50;101006.13;;;6.26;91.83
13952;BME280;39535;52.192;9.886;2023-02-20T04:40:19;101007.88;;;6.27;91.29
13952;BME280;39535;52.192;9.886;2023-02-20T04:42:46;101012.19;;;6.28;91.13
13952;BME280;39535;52.192;9.886;2023-02-20T04:45:13;100987.09;;;6.21;91.95
13952;BME280;39535;52.192;9.886;2023-02-20T04:47:43;100960.41;;;6.32;92.11
13952;BME280;39535;52.192;9.886;2023-02-20T04:50:14;100964.69;;;6.29;91.00
13952;BME280;39535;52.192;9.886;2023-02-20T04:52:41;100946.59;;;6.36;91.59
13952;BME280;39535;52.192;9.886;2023-02-20T04:55:08;100958.63;;;6.30;91.65
13952;BME280;39535;52.192;9.886;2023-02-20T04:57:34;100962.13;;;6.38;90.27
13952;BME280;39535;52.192;9.886;2023-02-20T05:00:00;100948.28;;;6.28;91.65
13952;BME280;39535;52.192;9.886;2023-02-20T05:02:27;100956.06;;;6.28;90.78
13952;BME280;39535;52.192;9.886;2023-02-20T05:04:54;100959.53;;;6.33;91.67
13952;BME280;39535;52.192;9.886;2023-02-20T05:07:21;100964.72;;;6.33;91.13
13952;BME280;39535;52.192;9.886;2023-02-20T05:09:47;100960.38;;;6.34;91.90
13952;BME280;39535;52.192;9.886;2023-02-20T05:12:14;100967.34;;;6.40;91.91
13952;BME280;39535;52.192;9.886;2023-02-20T05:14:40;100953.50;;;6.38;90.71
13952;BME280;39535;52.192;9.886;2023-02-20T05:17:06;100969.06;;;6.38;90.99
13952;BME280;39535;52.192;9.886;2023-02-20T05:19:33;100980.28;;;6.35;90.60
13952;BME280;39535;52.192;9.886;2023-02-20T05:22:00;100977.75;;;6.43;90.98
13952;BME280;39535;52.192;9.886;2023-02-20T05:24:44;100975.97;;;6.40;90.00
13952;BME280;39535;52.192;9.886;2023-02-20T05:27:11;100979.44;;;6.38;91.00
13952;BME280;39535;52.192;9.886;2023-02-20T05:29:43;100975.13;;;6.41;90.75
13952;BME280;39535;52.192;9.886;2023-02-20T05:32:09;100983.81;;;6.45;91.28
13952;BME280;39535;52.192;9.886;2023-02-20T05:34:36;100995.91;;;6.43;91.01
13952;BME280;39535;52.192;9.886;2023-02-20T05:37:03;100998.56;;;6.50;90.29
13952;BME280;39535;52.192;9.886;2023-02-20T05:39:30;100993.38;;;6.53;90.41
13952;BME280;39535;52.192;9.886;2023-02-20T05:41:56;100982.09;;;6.50;90.55
13952;BME280;39535;52.192;9.886;2023-02-20T05:44:23;100974.38;;;6.54;90.09
13952;BME280;39535;52.192;9.886;2023-02-20T05:46:49;100957.97;;;6.59;90.69
13952;BME280;39535;52.192;9.886;2023-02-20T05:49:16;100972.63;;;6.53;90.49
13952;BME280;39535;52.192;9.886;2023-02-20T05:51:42;100967.44;;;6.50;90.02
13952;BME280;39535;52.192;9.886;2023-02-20T05:54:10;100966.56;;;6.56;90.27
13952;BME280;39535;52.192;9.886;2023-02-20T05:56:40;100965.69;;;6.51;89.22
13952;BME280;39535;52.192;9.886;2023-02-20T05:59:06;100969.19;;;6.54;89.19
13952;BME280;39535;52.192;9.886;2023-02-20T06:01:33;100979.56;;;6.54;88.85
13952;BME280;39535;52.192;9.886;2023-02-20T06:03:59;100970.06;;;6.61;89.31
13952;BME280;39535;52.192;9.886;2023-02-20T06:06:31;100996.88;;;6.60;87.90
13952;BME280;39535;52.192;9.886;2023-02-20T06:08:57;100997.78;;;6.65;87.97
13952;BME280;39535;52.192;9.886;2023-02-20T06:11:25;101005.56;;;6.62;88.70
13952;BME280;39535;52.192;9.886;2023-02-20T06:13:52;101003.84;;;6.67;88.16
13952;BME280;39535;52.192;9.886;2023-02-20T06:16:21;101018.53;;;6.67;87.36
13952;BME280;39535;52.192;9.886;2023-02-20T06:18:48;101016.84;;;6.73;87.34
13952;BME280;39535;52.192;9.886;2023-02-20T06:21:14;101017.72;;;6.75;87.01
13952;BME280;39535;52.192;9.886;2023-02-20T06:23:42;101013.44;;;6.81;87.47
13952;BME280;39535;52.192;9.886;2023-02-20T06:26:10;101014.28;;;6.78;87.33
13952;BME280;39535;52.192;9.886;2023-02-20T06:28:39;101016.91;;;6.83;87.13
13952;BME280;39535;52.192;9.886;2023-02-20T06:31:06;101025.59;;;6.88;86.54
13952;BME280;39535;52.192;9.886;2023-02-20T06:33:32;101037.72;;;6.90;86.05
13952;BME280;39535;52.192;9.886;2023-02-20T06:35:59;101045.47;;;6.86;86.42
13952;BME280;39535;52.192;9.886;2023-02-20T06:38:25;101043.75;;;6.86;86.56
13952;BME280;39535;52.192;9.886;2023-02-20T06:40:52;101039.47;;;6.94;86.35
13952;BME280;39535;52.192;9.886;2023-02-20T06:43:18;101034.25;;;6.93;86.21
13952;BME280;39535;52.192;9.886;2023-02-20T06:45:46;101052.38;;;6.87;85.45
13952;BME280;39535;52.192;9.886;2023-02-20T06:48:13;101048.97;;;6.94;86.01
13952;BME280;39535;52.192;9.886;2023-02-20T06:50:39;101056.75;;;6.95;85.57
13952;BME280;39535;52.192;9.886;2023-02-20T06:53:06;101060.22;;;6.94;85.54
13952;BME280;39535;52.192;9.886;2023-02-20T06:55:32;101057.63;;;6.93;85.83
13952;BME280;39535;52.192;9.886;2023-02-20T06:57:59;101050.72;;;6.98;85.18
13952;BME280;39535;52.192;9.886;2023-02-20T07:00:26;101057.66;;;6.99;85.47
13952;BME280;39535;52.192;9.886;2023-02-20T07:02:53;101055.09;;;7.04;85.35
13952;BME280;39535;52.192;9.886;2023-02-20T07:05:20;101060.25;;;7.01;84.86
13952;BME280;39535;52.192;9.886;2023-02-20T07:07:46;101068.91;;;7.03;84.97
13952;BME280;39535;52.192;9.886;2023-02-20T07:10:12;101068.06;;;7.04;84.65
13952;BME280;39535;52.192;9.886;2023-02-20T07:12:39;101066.31;;;7.01;85.05
13952;BME280;39535;52.192;9.886;2023-02-20T07:15:06;101073.22;;;7.01;85.00
13952;BME280;39535;52.192;9.886;2023-02-20T07:17:33;101073.25;;;7.07;84.81
13952;BME280;39535;52.192;9.886;2023-02-20T07:20:00;101084.50;;;7.07;85.50
13952;BME280;39535;52.192;9.886;2023-02-20T07:22:28;101090.53;;;7.03;85.17
13952;BME280;39535;52.192;9.886;2023-02-20T07:24:54;101083.63;;;7.01;85.20
13952;BME280;39535;52.192;9.886;2023-02-20T07:27:21;101073.25;;;7.02;85.38
13952;BME280;39535;52.192;9.886;2023-02-20T07:29:48;101054.25;;;7.11;85.89
13952;BME280;39535;52.192;9.886;2023-02-20T07:32:16;101060.28;;;7.02;84.83
13952;BME280;39535;52.192;9.886;2023-02-20T07:34:44;101049.00;;;7.03;85.68
13952;BME280;39535;52.192;9.886;2023-02-20T07:37:12;101039.53;;;7.11;85.98
13952;BME280;39535;52.192;9.886;2023-02-20T07:39:39;101033.47;;;7.11;84.82
13952;BME280;39535;52.192;9.886;2023-02-20T07:42:05;101034.38;;;7.19;85.29
13952;BME280;39535;52.192;9.886;2023-02-20T07:44:31;101037.00;;;7.21;85.36
13952;BME280;39535;52.192;9.886;2023-02-20T07:46:58;101024.00;;;7.16;84.93
13952;BME280;39535;52.192;9.886;2023-02-20T07:49:24;101039.59;;;7.21;84.84
13952;BME280;39535;52.192;9.886;2023-02-20T07:51:51;101036.13;;;7.23;84.87
13952;BME280;39535;52.192;9.886;2023-02-20T07:54:18;101035.25;;;7.16;85.23
13952;BME280;39535;52.192;9.886;2023-02-20T07:56:44;101021.41;;;7.18;85.28
13952;BME280;39535;52.192;9.886;2023-02-20T07:59:11;101030.88;;;7.06;85.46
13952;BME280;39535;52.192;9.886;2023-02-20T08:01:37;101039.53;;;7.11;84.87
13952;BME280;39535;52.192;9.886;2023-02-20T08:04:04;101037.00;;;7.18;85.37
13952;BME280;39535;52.192;9.886;2023-02-20T08:06:30;101028.34;;;7.23;85.33
13952;BME280;39535;52.192;9.886;2023-02-20T08:08:56;101030.06;;;7.16;84.67
13952;BME280;39535;52.192;9.886;2023-02-20T08:11:24;101025.78;;;7.28;84.59
13952;BME280;39535;52.192;9.886;2023-02-20T08:13:51;101025.75;;;7.22;84.39
13952;BME280;39535;52.192;9.886;2023-02-20T08:16:19;101016.28;;;7.36;85.47
13952;BME280;39535;52.192;9.886;2023-02-20T08:18:46;101002.47;;;7.42;85.17
13952;BME280;39535;52.192;9.886;2023-02-20T08:21:12;100979.97;;;7.44;84.91
13952;BME280;39535;52.192;9.886;2023-02-20T08:23:38;101043.97;;;7.37;84.43
13952;BME280;39535;52.192;9.886;2023-02-20T08:26:05;101037.91;;;7.35;84.54
13952;BME280;39535;52.192;9.886;2023-02-20T08:28:32;101033.59;;;7.39;84.60
13952;BME280;39535;52.192;9.886;2023-02-20T08:30:59;101034.47;;;7.31;84.85
13952;BME280;39535;52.192;9.886;2023-02-20T08:33:25;101015.34;;;7.23;85.25
13952;BME280;39535;52.192;9.886;2023-02-20T08:35:52;100998.88;;;7.15;84.53
13952;BME280;39535;52.192;9.886;2023-02-20T08:38:26;100980.75;;;7.20;85.58
13952;BME280;39535;52.192;9.886;2023-02-20T08:40:53;100971.25;;;7.22;85.43
13952;BME280;39535;52.192;9.886;2023-02-20T08:43:20;101006.75;;;7.30;84.51
13952;BME280;39535;52.192;9.886;2023-02-20T08:45:48;100998.13;;;7.38;83.98
13952;BME280;39535;52.192;9.886;2023-02-20T08:48:15;101000.69;;;7.39;84.89
13952;BME280;39535;52.192;9.886;2023-02-20T08:50:41;100983.44;;;7.46;85.19
13952;BME280;39535;52.192;9.886;2023-02-20T08:53:08;100977.34;;;7.44;85.02
13952;BME280;39535;52.192;9.886;2023-02-20T08:55:34;100966.97;;;7.50;84.98
13952;BME280;39535;52.192;9.886;2023-02-20T08:58:00;100972.16;;;7.42;84.69
13952;BME280;39535;52.192;9.886;2023-02-20T09:00:27;100977.34;;;7.53;84.87
13952;BME280;39535;52.192;9.886;2023-02-20T09:02:54;100979.97;;;7.44;85.00
13952;BME280;39535;52.192;9.886;2023-02-20T09:05:21;100973.03;;;7.40;85.43
13952;BME280;39535;52.192;9.886;2023-02-20T09:07:48;100963.50;;;7.46;85.31
13952;BME280;39535;52.192;9.886;2023-02-20T09:10:15;100960.03;;;7.50;85.92
13952;BME280;39535;52.192;9.886;2023-02-20T09:12:41;100947.91;;;7.46;85.66
13952;BME280;39535;52.192;9.886;2023-02-20T09:15:08;100946.19;;;7.48;85.42
13952;BME280;39535;52.192;9.886;2023-02-20T09:17:34;100936.69;;;7.58;85.40
13952;BME280;39535;52.192;9.886;2023-02-20T09:20:02;100946.22;;;7.62;85.11
13952;BME280;39535;52.192;9.886;2023-02-20T09:22:29;100936.69;;;7.64;85.21
13952;BME280;39535;52.192;9.886;2023-02-20T09:24:55;100954.88;;;7.70;84.57
13952;BME280;39535;52.192;9.886;2023-02-20T09:27:22;100951.44;;;7.65;84.82
13952;BME280;39535;52.192;9.886;2023-02-20T09:29:48;100945.34;;;7.54;84.34
13952;BME280;39535;52.192;9.886;2023-02-20T09:32:14;100937.56;;;7.62;85.92
13952;BME280;39535;52.192;9.886;2023-02-20T09:34:40;100916.75;;;7.72;85.52
13952;BME280;39535;52.192;9.886;2023-02-20T09:37:09;100928.03;;;7.74;85.29
13952;BME280;39535;52.192;9.886;2023-02-20T09:39:35;100913.28;;;7.63;86.06
13952;BME280;39535;52.192;9.886;2023-02-20T09:42:11;100883.84;;;7.76;86.15
13952;BME280;39535;52.192;9.886;2023-02-20T09:44:47;100889.06;;;7.76;86.70
13952;BME280;39535;52.192;9.886;2023-02-20T09:47:28;100908.97;;;7.80;86.00
13952;BME280;39535;52.192;9.886;2023-02-20T09:49:59;100912.44;;;7.68;86.64
13952;BME280;39535;52.192;9.886;2023-02-20T09:52:28;100906.38;;;7.69;86.76
13952;BME280;39535;52.192;9.886;2023-02-20T09:55:00;100885.59;;;7.72;86.50
13952;BME280;39535;52.192;9.886;2023-02-20T09:57:28;100887.31;;;7.72;87.27
13952;BME280;39535;52.192;9.886;2023-02-20T10:00:00;100863.06;;;7.73;88.05
13952;BME280;39535;52.192;9.886;2023-02-20T10:02:30;100848.38;;;7.75;87.76
13952;BME280;39535;52.192;9.886;2023-02-20T10:05:01;100845.75;;;7.72;88.39
13952;BME280;39535;52.192;9.886;2023-02-20T10:07:31;100827.56;;;7.64;88.45
13952;BME280;39535;52.192;9.886;2023-02-20T10:09:59;100799.88;;;7.55;88.89
13952;BME280;39535;52.192;9.886;2023-02-20T10:12:30;100805.94;;;7.59;88.98
13952;BME280;39535;52.192;9.886;2023-02-20T10:15:14;100812.84;;;7.59;89.83
13952;BME280;39535;52.192;9.886;2023-02-20T10:17:49;100806.81;;;7.53;89.07
13952;BME280;39535;52.192;9.886;2023-02-20T10:20:25;100776.50;;;7.55;89.53
13952;BME280;39535;52.192;9.886;2023-02-20T10:23:03;100787.72;;;7.54;89.68
13952;BME280;39535;52.192;9.886;2023-02-20T10:25:35;100764.34;;;7.65;90.44
13952;BME280;39535;52.192;9.886;2023-02-20T10:28:05;100772.16;;;7.62;90.42
13952;BME280;39535;52.192;9.886;2023-02-20T10:30:35;100765.22;;;7.73;89.86
13952;BME280;39535;52.192;9.886;2023-02-20T10:33:15;100764.34;;;7.68;90.84
13952;BME280;39535;52.192;9.886;2023-02-20T10:35:47;100746.13;;;7.78;90.68
13952;BME280;39535;52.192;9.886;2023-02-20T10:38:22;100734.88;;;7.74;90.86
13952;BME280;39535;52.192;9.886;2023-02-20T10:40:53;100732.28;;;7.71;91.03
13952;BME280;39535;52.192;9.886;2023-02-20T10:43:31;100733.13;;;7.74;90.37
13952;BME280;39535;52.192;9.886;2023-02-20T10:46:04;100736.66;;;7.61;90.99
13952;BME280;39535;52.192;9.886;2023-02-20T10:48:34;100727.97;;;7.70;91.06
13952;BME280;39535;52.192;9.886;2023-02-20T10:51:05;100724.50;;;7.65;92.07
13952;BME280;39535;52.192;9.886;2023-02-20T10:53:38;100721.88;;;7.75;92.29
13952;BME280;39535;52.192;9.886;2023-02-20T10:56:10;100737.47;;;7.74;91.91
13952;BME280;39535;52.192;9.886;2023-02-20T10:58:39;100741.81;;;7.75;92.11
13952;BME280;39535;52.192;9.886;2023-02-20T11:01:10;100721.03;;;7.72;91.99
13952;BME280;39535;52.192;9.886;2023-02-20T11:03:43;100728.81;;;7.70;92.06
13952;BME280;39535;52.192;9.886;2023-02-20T11:06:15;100734.88;;;7.72;91.88
13952;BME280;39535;52.192;9.886;2023-02-20T11:08:43;100741.81;;;7.75;92.49
13952;BME280;39535;52.192;9.886;2023-02-20T11:11:24;100727.09;;;7.77;92.36
13952;BME280;39535;52.192;9.886;2023-02-20T11:13:51;100716.75;;;7.55;93.30
13952;BME280;39535;52.192;9.886;2023-02-20T11:16:22;100709.75;;;7.73;92.71
13952;BME280;39535;52.192;9.886;2023-02-20T11:19:01;100702.00;;;7.65;92.89
13952;BME280;39535;52.192;9.886;2023-02-20T11:21:39;100712.41;;;7.58;93.30
13952;BME280;39535;52.192;9.886;2023-02-20T11:24:27;100691.59;;;7.64;93.41
13952;BME280;39535;52.192;9.886;2023-02-20T11:26:56;100707.19;;;7.53;94.28
13952;BME280;39535;52.192;9.886;2023-02-20T11:29:29;100700.31;;;7.41;94.75
13952;BME280;39535;52.192;9.886;2023-02-20T11:32:23;100675.22;;;7.37;95.05
13952;BME280;39535;52.192;9.886;2023-02-20T11:35:11;100691.69;;;7.31;94.84
13952;BME280;39535;52.192;9.886;2023-02-20T11:37:39;100684.78;;;7.16;95.46
13952;BME280;39535;52.192;9.886;2023-02-20T11:40:14;100690.81;;;7.17;95.35
13952;BME280;39535;52.192;9.886;2023-02-20T11:42:41;100659.69;;;7.14;96.05
13952;BME280;39535;52.192;9.886;2023-02-20T11:45:14;100668.34;;;7.16;96.03
13952;BME280;39535;52.192;9.886;2023-02-20T11:47:41;100644.94;;;7.19;96.50
13952;BME280;39535;52.192;9.886;2023-02-20T11:50:13;100659.69;;;7.14;96.27
13952;BME280;39535;52.192;9.886;2023-02-20T11:52:54;100634.59;;;7.16;96.82
13952;BME280;39535;52.192;9.886;2023-02-20T11:55:24;100613.81;;;7.14;97.54
13952;BME280;39535;52.192;9.886;2023-02-20T11:57:51;100613.81;;;7.24;96.80
13952;BME280;39535;52.192;9.886;2023-02-20T12:00:19;100605.16;;;7.22;96.55
13952;BME280;39535;52.192;9.886;2023-02-20T12:02:51;100622.44;;;7.23;95.88
13952;BME280;39535;52.192;9.886;2023-02-20T12:05:19;100612.94;;;7.09;97.03
13952;BME280;39535;52.192;9.886;2023-02-20T12:07:55;100599.97;;;7.12;97.25
13952;BME280;39535;52.192;9.886;2023-02-20T12:10:28;100593.94;;;7.04;97.77
13952;BME280;39535;52.192;9.886;2023-02-20T12:12:56;100594.75;;;7.17;97.77
13952;BME280;39535;52.192;9.886;2023-02-20T12:15:24;100586.13;;;7.16;97.80
13952;BME280;39535;52.192;9.886;2023-02-20T12:20:57;100572.28;;;7.13;98.08
13952;BME280;39535;52.192;9.886;2023-02-20T12:23:34;100547.19;;;7.16;98.62
13952;BME280;39535;52.192;9.886;2023-02-20T12:26:24;100561.06;;;7.15;98.33
13952;BME280;39535;52.192;9.886;2023-02-20T12:29:03;100551.53;;;7.10;99.22
13952;BME280;39535;52.192;9.886;2023-02-20T12:31:43;100563.66;;;7.06;99.28
13952;BME280;39535;52.192;9.886;2023-02-20T12:34:29;100557.63;;;6.98;99.06
13952;BME280;39535;52.192;9.886;2023-02-20T12:37:04;100560.16;;;7.15;98.84
13952;BME280;39535;52.192;9.886;2023-02-20T12:39:41;100561.91;;;7.16;99.63
13952;BME280;39535;52.192;9.886;2023-02-20T12:42:19;100557.63;;;6.95;99.28
13952;BME280;39535;52.192;9.886;2023-02-20T12:45:02;100569.69;;;7.07;100.00
13952;BME280;39535;52.192;9.886;2023-02-20T12:47:35;100577.50;;;6.97;100.00
13952;BME280;39535;52.192;9.886;2023-02-20T12:50:18;100561.94;;;6.99;100.00
13952;BME280;39535;52.192;9.886;2023-02-20T12:53:04;100537.72;;;7.02;100.00
13952;BME280;39535;52.192;9.886;2023-02-20T12:55:40;100531.66;;;7.04;100.00
13952;BME280;39535;52.192;9.886;2023-02-20T12:58:18;100523.00;;;7.08;100.00
13952;BME280;39535;52.192;9.886;2023-02-20T13:00:51;100533.38;;;7.10;100.00
13952;BME280;39535;52.192;9.886;2023-02-20T13:03:20;100523.00;;;7.08;100.00
13952;BME280;39535;52.192;9.886;2023-02-20T13:05:49;100504.84;;;7.04;100.00
13952;BME280;39535;52.192;9.886;2023-02-20T13:08:20;100495.31;;;7.04;100.00
13952;BME280;39535;52.192;9.886;2023-02-20T13:10:51;100509.13;;;7.12;100.00
13952;BME280;39535;52.192;9.886;2023-02-20T13:13:20;100518.66;;;7.10;100.00
13952;BME280;39535;52.192;9.886;2023-02-20T13:15:55;100486.66;;;7.10;100.00
13952;BME280;39535;52.192;9.886;2023-02-20T13:18:28;100465.91;;;7.02;100.00
13952;BME280;39535;52.192;9.886;2023-02-20T13:21:00;100468.50;;;7.02;100.00